createdAt,value
2016-12-06T00:00:56.032Z,-1.19
2016-12-06T00:02:04.712Z,-1.39
2016-12-06T00:03:13.399Z,-1.45
2016-12-06T00:04:22.085Z,-1.46
2016-12-06T00:05:30.766Z,-1.82
2016-12-06T00:06:39.450Z,-1.89
2016-12-06T00:07:48.236Z,-2.04
2016-12-06T00:08:56.919Z,-2.23
2016-12-06T00:10:05.599Z,-2.36
2016-12-06T00:11:14.628Z,-2.33
2016-12-06T00:12:23.622Z,-2.36
2016-12-06T00:13:32.303Z,-2.45
2016-12-06T00:14:40.992Z,-2.4
2016-12-06T00:15:49.709Z,-2.52
2016-12-06T00:16:58.388Z,-2.55
2016-12-06T00:18:07.071Z,-2.48
2016-12-06T00:19:15.756Z,-2.54
2016-12-06T00:20:24.437Z,-2.58
2016-12-06T00:21:33.122Z,-2.5
2016-12-06T00:22:42.133Z,-2.4
2016-12-06T00:23:50.817Z,-2.4
2016-12-06T00:24:59.499Z,-2.44
2016-12-06T00:26:08.180Z,-2.54
2016-12-06T00:27:16.860Z,-2.51
2016-12-06T00:28:25.535Z,-2.42
2016-12-06T00:29:34.222Z,-2.45
2016-12-06T00:30:42.902Z,-2.39
2016-12-06T00:31:51.585Z,-2.48
2016-12-06T00:33:00.266Z,-2.42
2016-12-06T00:34:08.948Z,-2.44
2016-12-06T00:35:17.634Z,-2.51
2016-12-06T00:36:26.316Z,-2.37
2016-12-06T00:37:35.002Z,-2.34
2016-12-06T00:38:43.685Z,-2.36
2016-12-06T00:39:52.367Z,-2.39
2016-12-06T00:41:01.049Z,-2.33
2016-12-06T00:42:09.728Z,-2.34
2016-12-06T00:43:18.415Z,-2.29
2016-12-06T00:44:27.106Z,-2.33
2016-12-06T00:45:35.793Z,-2.4
2016-12-06T00:46:44.473Z,-2.4
2016-12-06T00:47:53.529Z,-2.4
2016-12-06T00:49:02.530Z,-2.5
2016-12-06T00:50:11.214Z,-2.42
2016-12-06T00:51:20.225Z,-2.42
2016-12-06T00:52:28.906Z,-2.34
2016-12-06T00:53:37.595Z,-2.42
2016-12-06T00:54:46.306Z,-2.42
2016-12-06T00:55:55.304Z,-2.34
2016-12-06T00:57:03.997Z,-2.34
2016-12-06T00:58:12.686Z,-2.15
2016-12-06T00:59:21.366Z,-2.25
2016-12-06T01:00:30.049Z,-2.36
2016-12-06T01:01:38.731Z,-2.48
2016-12-06T01:02:47.408Z,-2.34
2016-12-06T01:03:56.089Z,-2.39
2016-12-06T01:05:04.779Z,-2.5
2016-12-06T01:06:13.463Z,-2.58
2016-12-06T01:07:22.463Z,-2.62
2016-12-06T01:08:31.142Z,-2.68
2016-12-06T01:09:39.824Z,-2.69
2016-12-06T01:10:48.499Z,-2.81
2016-12-06T01:11:57.180Z,-2.75
2016-12-06T01:13:05.859Z,-2.68
2016-12-06T01:14:14.863Z,-2.72
2016-12-06T01:15:23.548Z,-2.69
2016-12-06T01:16:32.240Z,-2.42
2016-12-06T01:17:40.921Z,-2.25
2016-12-06T01:18:49.605Z,-2.11
2016-12-06T01:19:58.317Z,-2.02
2016-12-06T01:21:07.034Z,-2.07
2016-12-06T01:22:15.712Z,-2.02
2016-12-06T01:23:24.396Z,-2.02
2016-12-06T01:24:33.092Z,-2.13
2016-12-06T01:25:41.779Z,-2.08
2016-12-06T01:26:50.515Z,-2.2
2016-12-06T01:27:59.188Z,-2.22
2016-12-06T01:29:07.871Z,-2.15
2016-12-06T01:30:16.554Z,-2.05
2016-12-06T01:31:25.238Z,-1.99
2016-12-06T01:32:33.922Z,-1.97
2016-12-06T01:33:42.614Z,-2.1
2016-12-06T01:34:51.296Z,-2.13
2016-12-06T01:35:59.980Z,-2.05
2016-12-06T01:37:08.664Z,-1.96
2016-12-06T01:38:17.372Z,-2.04
2016-12-06T01:39:26.052Z,-2.05
2016-12-06T01:40:34.730Z,-2.07
2016-12-06T01:41:43.416Z,-2.23
2016-12-06T01:42:52.098Z,-2.5
2016-12-06T01:44:00.783Z,-2.51
2016-12-06T01:45:09.498Z,-2.54
2016-12-06T01:46:18.179Z,-2.52
2016-12-06T01:47:26.861Z,-2.58
2016-12-06T01:48:35.543Z,-2.68
2016-12-06T01:49:44.259Z,-2.62
2016-12-06T01:50:52.938Z,-2.75
2016-12-06T01:52:01.934Z,-2.91
2016-12-06T01:53:10.620Z,-3.01
2016-12-06T01:54:19.298Z,-2.96
2016-12-06T01:55:27.982Z,-2.86
2016-12-06T01:56:36.667Z,-2.76
2016-12-06T01:57:45.346Z,-2.69
2016-12-06T01:58:54.026Z,-2.65
2016-12-06T02:00:02.715Z,-2.69
2016-12-06T02:01:11.399Z,-2.69
2016-12-06T02:02:20.083Z,-2.75
2016-12-06T02:03:28.760Z,-2.7
2016-12-06T02:04:37.440Z,-2.7
2016-12-06T02:05:46.118Z,-2.7
2016-12-06T02:06:54.801Z,-2.78
2016-12-06T02:08:03.510Z,-2.76
2016-12-06T02:09:12.199Z,-2.8
2016-12-06T02:10:20.886Z,-2.89
2016-12-06T02:11:29.571Z,-2.8
2016-12-06T02:12:38.251Z,-2.78
2016-12-06T02:13:46.941Z,-2.7
2016-12-06T02:14:55.622Z,-2.62
2016-12-06T02:16:04.311Z,-2.69
2016-12-06T02:17:12.988Z,-2.58
2016-12-06T02:18:21.678Z,-2.54
2016-12-06T02:19:30.360Z,-2.58
2016-12-06T02:20:39.042Z,-2.65
2016-12-06T02:21:47.721Z,-2.54
2016-12-06T02:22:56.405Z,-2.54
2016-12-06T02:24:05.090Z,-2.62
2016-12-06T02:25:14.407Z,-2.62
2016-12-06T02:26:23.086Z,-2.72
2016-12-06T02:27:31.770Z,-2.78
2016-12-06T02:28:40.446Z,-2.89
2016-12-06T02:29:49.129Z,-2.9
2016-12-06T02:30:57.813Z,-2.78
2016-12-06T02:32:06.498Z,-2.69
2016-12-06T02:33:15.183Z,-2.69
2016-12-06T02:34:23.865Z,-2.63
2016-12-06T02:35:32.553Z,-2.58
2016-12-06T02:36:41.235Z,-2.69
2016-12-06T02:37:49.919Z,-2.65
2016-12-06T02:38:58.602Z,-2.8
2016-12-06T02:40:07.283Z,-2.93
2016-12-06T02:41:15.961Z,-2.89
2016-12-06T02:42:24.642Z,-2.89
2016-12-06T02:43:33.326Z,-2.98
2016-12-06T02:44:42.007Z,-3.04
2016-12-06T02:45:50.720Z,-3.01
2016-12-06T02:46:59.399Z,-3.15
2016-12-06T02:48:08.076Z,-3.15
2016-12-06T02:49:16.762Z,-3.11
2016-12-06T02:50:25.443Z,-3.01
2016-12-06T02:51:34.128Z,-2.98
2016-12-06T02:52:42.805Z,-2.93
2016-12-06T02:53:51.485Z,-2.83
2016-12-06T02:55:00.479Z,-2.62
2016-12-06T02:56:09.181Z,-2.62
2016-12-06T02:57:17.867Z,-2.69
2016-12-06T02:58:26.549Z,-2.73
2016-12-06T02:59:35.229Z,-2.89
2016-12-06T03:00:43.909Z,-2.94
2016-12-06T03:01:52.592Z,-3.01
2016-12-06T03:03:01.269Z,-3.08
2016-12-06T03:04:09.952Z,-3.14
2016-12-06T03:05:18.633Z,-3.07
2016-12-06T03:06:27.633Z,-3.11
2016-12-06T03:07:36.313Z,-3.05
2016-12-06T03:08:44.998Z,-3.08
2016-12-06T03:09:53.682Z,-3.17
2016-12-06T03:11:02.518Z,-3.15
2016-12-06T03:12:11.198Z,-3.12
2016-12-06T03:13:19.883Z,-2.93
2016-12-06T03:14:28.566Z,-2.76
2016-12-06T03:15:37.251Z,-2.73
2016-12-06T03:16:45.930Z,-2.65
2016-12-06T03:17:54.610Z,-2.62
2016-12-06T03:19:03.299Z,-2.65
2016-12-06T03:20:11.984Z,-2.62
2016-12-06T03:21:20.986Z,-2.58
2016-12-06T03:22:30.040Z,-2.61
2016-12-06T03:23:38.719Z,-2.65
2016-12-06T03:24:47.404Z,-2.68
2016-12-06T03:25:56.109Z,-2.62
2016-12-06T03:27:04.791Z,-2.57
2016-12-06T03:28:13.786Z,-2.54
2016-12-06T03:29:22.467Z,-2.54
2016-12-06T03:30:31.148Z,-2.54
2016-12-06T03:31:39.833Z,-2.52
2016-12-06T03:32:48.515Z,-2.5
2016-12-06T03:33:57.197Z,-2.52
2016-12-06T03:35:05.884Z,-2.4
2016-12-06T03:36:14.559Z,-2.44
2016-12-06T03:37:23.242Z,-2.42
2016-12-06T03:38:31.922Z,-2.37
2016-12-06T03:39:40.606Z,-2.4
2016-12-06T03:40:49.598Z,-2.54
2016-12-06T03:41:58.278Z,-2.52
2016-12-06T03:43:07.274Z,-2.45
2016-12-06T03:44:16.275Z,-2.51
2016-12-06T03:45:24.958Z,-2.47
2016-12-06T03:46:33.955Z,-2.48
2016-12-06T03:47:42.637Z,-2.51
2016-12-06T03:48:51.320Z,-2.55
2016-12-06T03:50:00.014Z,-2.44
2016-12-06T03:51:09.012Z,-2.37
2016-12-06T03:52:17.696Z,-2.28
2016-12-06T03:53:26.379Z,-2.39
2016-12-06T03:54:35.061Z,-2.2
2016-12-06T03:55:43.747Z,-2.11
2016-12-06T03:56:52.456Z,-2.05
2016-12-06T03:58:01.144Z,-2.05
2016-12-06T03:59:09.832Z,-1.96
2016-12-06T04:00:18.513Z,-1.9
2016-12-06T04:01:27.198Z,-1.89
2016-12-06T04:02:35.877Z,-1.79
2016-12-06T04:03:44.560Z,-1.82
2016-12-06T04:04:53.251Z,-1.89
2016-12-06T04:06:01.928Z,-1.82
2016-12-06T04:07:10.609Z,-1.94
2016-12-06T04:08:19.304Z,-1.92
2016-12-06T04:09:27.983Z,-1.82
2016-12-06T04:10:36.668Z,-1.74
2016-12-06T04:11:45.351Z,-1.75
2016-12-06T04:12:54.033Z,-1.72
2016-12-06T04:14:02.720Z,-1.71
2016-12-06T04:15:11.401Z,-1.69
2016-12-06T04:16:20.083Z,-1.72
2016-12-06T04:17:28.765Z,-1.86
2016-12-06T04:18:37.442Z,-1.92
2016-12-06T04:19:46.126Z,-1.93
2016-12-06T04:20:54.807Z,-1.87
2016-12-06T04:22:03.499Z,-1.87
2016-12-06T04:23:12.179Z,-1.9
2016-12-06T04:24:20.861Z,-1.9
2016-12-06T04:25:29.542Z,-1.93
2016-12-06T04:26:38.226Z,-1.9
2016-12-06T04:27:46.907Z,-1.87
2016-12-06T04:28:55.587Z,-1.9
2016-12-06T04:30:04.268Z,-1.94
2016-12-06T04:31:13.275Z,-1.87
2016-12-06T04:32:21.964Z,-1.84
2016-12-06T04:33:30.645Z,-1.82
2016-12-06T04:34:39.337Z,-1.89
2016-12-06T04:35:48.017Z,-1.82
2016-12-06T04:36:56.706Z,-1.82
2016-12-06T04:38:05.387Z,-1.92
2016-12-06T04:39:14.073Z,-1.84
2016-12-06T04:40:22.761Z,-1.86
2016-12-06T04:41:31.445Z,-1.81
2016-12-06T04:42:40.126Z,-1.82
2016-12-06T04:43:49.135Z,-1.78
2016-12-06T04:44:57.814Z,-1.86
2016-12-06T04:46:06.498Z,-1.97
2016-12-06T04:47:15.180Z,-1.9
2016-12-06T04:48:23.863Z,-1.9
2016-12-06T04:49:32.544Z,-1.92
2016-12-06T04:50:41.229Z,-1.96
2016-12-06T04:51:50.233Z,-1.99
2016-12-06T04:52:58.912Z,-1.93
2016-12-06T04:54:07.603Z,-1.89
2016-12-06T04:55:16.309Z,-1.89
2016-12-06T04:56:24.989Z,-1.96
2016-12-06T04:57:33.674Z,-1.94
2016-12-06T04:58:42.672Z,-1.9
2016-12-06T04:59:51.355Z,-1.92
2016-12-06T05:01:00.043Z,-1.81
2016-12-06T05:02:08.721Z,-1.68
2016-12-06T05:03:17.400Z,-1.63
2016-12-06T05:04:26.094Z,-1.68
2016-12-06T05:05:34.832Z,-1.66
2016-12-06T05:06:43.558Z,-1.64
2016-12-06T05:07:52.244Z,-1.57
2016-12-06T05:09:00.920Z,-1.45
2016-12-06T05:10:09.608Z,-1.53
2016-12-06T05:11:18.289Z,-1.48
2016-12-06T05:12:26.976Z,-1.43
2016-12-06T05:13:35.660Z,-1.57
2016-12-06T05:14:44.341Z,-1.53
2016-12-06T05:15:53.026Z,-1.57
2016-12-06T05:17:01.704Z,-1.66
2016-12-06T05:18:10.393Z,-1.63
2016-12-06T05:19:19.074Z,-1.74
2016-12-06T05:20:27.768Z,-1.78
2016-12-06T05:21:36.452Z,-1.76
2016-12-06T05:22:45.136Z,-1.68
2016-12-06T05:23:53.816Z,-1.75
2016-12-06T05:25:02.498Z,-1.72
2016-12-06T05:26:11.195Z,-1.75
2016-12-06T05:27:19.873Z,-1.76
2016-12-06T05:28:28.559Z,-1.74
2016-12-06T05:29:37.247Z,-1.81
2016-12-06T05:30:45.931Z,-1.76
2016-12-06T05:31:54.616Z,-1.79
2016-12-06T05:33:03.296Z,-1.76
2016-12-06T05:34:11.983Z,-1.78
2016-12-06T05:35:20.668Z,-1.82
2016-12-06T05:36:29.348Z,-1.78
2016-12-06T05:37:38.030Z,-1.69
2016-12-06T05:38:46.722Z,-1.74
2016-12-06T05:39:55.402Z,-1.68
2016-12-06T05:41:04.088Z,-1.63
2016-12-06T05:42:12.785Z,-1.64
2016-12-06T05:43:21.501Z,-1.64
2016-12-06T05:44:30.181Z,-1.64
2016-12-06T05:45:38.860Z,-1.53
2016-12-06T05:46:47.544Z,-1.6
2016-12-06T05:47:56.545Z,-1.54
2016-12-06T05:49:05.228Z,-1.57
2016-12-06T05:50:13.909Z,-1.51
2016-12-06T05:51:22.598Z,-1.46
2016-12-06T05:52:31.277Z,-1.45
2016-12-06T05:53:40.278Z,-1.5
2016-12-06T05:54:48.972Z,-1.48
2016-12-06T05:55:57.675Z,-1.43
2016-12-06T05:57:06.361Z,-1.51
2016-12-06T05:58:15.042Z,-1.5
2016-12-06T05:59:24.049Z,-1.54
2016-12-06T06:00:32.739Z,-1.53
2016-12-06T06:01:41.418Z,-1.53
2016-12-06T06:02:50.103Z,-1.54
2016-12-06T06:03:58.785Z,-1.53
2016-12-06T06:05:07.468Z,-1.54
2016-12-06T06:06:16.469Z,-1.56
2016-12-06T06:07:25.180Z,-1.66
2016-12-06T06:08:33.861Z,-1.64
2016-12-06T06:09:42.578Z,-1.56
2016-12-06T06:10:51.261Z,-1.54
2016-12-06T06:11:59.949Z,-1.53
2016-12-06T06:13:08.631Z,-1.48
2016-12-06T06:14:17.319Z,-1.43
2016-12-06T06:15:26.000Z,-1.5
2016-12-06T06:16:34.681Z,-1.43
2016-12-06T06:17:43.358Z,-1.46
2016-12-06T06:18:52.040Z,-1.38
2016-12-06T06:20:00.730Z,-1.53
2016-12-06T06:21:10.049Z,-1.51
2016-12-06T06:22:18.736Z,-1.56
2016-12-06T06:23:27.418Z,-1.5
2016-12-06T06:24:36.100Z,-1.53
2016-12-06T06:25:44.789Z,-1.64
2016-12-06T06:26:53.472Z,-1.58
2016-12-06T06:28:02.158Z,-1.71
2016-12-06T06:29:10.842Z,-1.64
2016-12-06T06:30:19.525Z,-1.68
2016-12-06T06:31:28.208Z,-1.71
2016-12-06T06:32:36.893Z,-1.74
2016-12-06T06:33:45.572Z,-1.72
2016-12-06T06:34:54.567Z,-1.71
2016-12-06T06:36:03.249Z,-1.64
2016-12-06T06:37:11.937Z,-1.68
2016-12-06T06:38:20.652Z,-1.57
2016-12-06T06:39:29.329Z,-1.56
2016-12-06T06:40:38.043Z,-1.54
2016-12-06T06:41:46.728Z,-1.5
2016-12-06T06:42:55.467Z,-1.4
2016-12-06T06:44:04.152Z,-1.45
2016-12-06T06:45:12.844Z,-1.4
2016-12-06T06:46:21.549Z,-1.4
2016-12-06T06:47:30.237Z,-1.39
2016-12-06T06:48:38.921Z,-1.4
2016-12-06T06:49:47.603Z,-1.48
2016-12-06T06:50:56.287Z,-1.39
2016-12-06T06:52:04.967Z,-1.46
2016-12-06T06:53:13.680Z,-1.42
2016-12-06T06:54:22.362Z,-1.35
2016-12-06T06:55:31.376Z,-1.4
2016-12-06T06:56:40.060Z,-1.4
2016-12-06T06:57:48.742Z,-1.32
2016-12-06T06:58:57.419Z,-1.33
2016-12-06T07:00:06.103Z,-1.21
2016-12-06T07:01:14.792Z,-1.19
2016-12-06T07:02:23.474Z,-1.25
2016-12-06T07:03:32.160Z,-1.17
2016-12-06T07:04:40.848Z,-1.14
2016-12-06T07:05:49.528Z,-1.09
2016-12-06T07:06:58.212Z,-0.99
2016-12-06T07:08:06.893Z,-1.06
2016-12-06T07:09:15.601Z,-1.04
2016-12-06T07:10:24.283Z,-1
2016-12-06T07:11:32.964Z,-0.99
2016-12-06T07:12:41.646Z,-1.11
2016-12-06T07:13:50.327Z,-1.14
2016-12-06T07:14:59.005Z,-1.09
2016-12-06T07:16:07.690Z,-1.11
2016-12-06T07:17:16.374Z,-1.09
2016-12-06T07:18:25.052Z,-1.15
2016-12-06T07:19:33.730Z,-1.15
2016-12-06T07:20:42.409Z,-1.17
2016-12-06T07:21:51.112Z,-1.12
2016-12-06T07:23:00.110Z,-1.17
2016-12-06T07:24:09.421Z,-1.14
2016-12-06T07:25:18.104Z,-1.17
2016-12-06T07:26:26.790Z,-1.12
2016-12-06T07:27:35.479Z,-1.21
2016-12-06T07:28:44.158Z,-1.12
2016-12-06T07:29:53.152Z,-1.14
2016-12-06T07:31:01.835Z,-1.17
2016-12-06T07:32:10.526Z,-1.15
2016-12-06T07:33:19.209Z,-1.11
2016-12-06T07:34:27.897Z,-1.17
2016-12-06T07:35:36.578Z,-1.17
2016-12-06T07:36:45.267Z,-1.19
2016-12-06T07:37:54.265Z,-1.18
2016-12-06T07:39:02.951Z,-1.11
2016-12-06T07:40:11.955Z,-1.12
2016-12-06T07:41:20.667Z,-1
2016-12-06T07:42:29.349Z,-1.06
2016-12-06T07:43:38.030Z,-1.03
2016-12-06T07:44:46.715Z,-1.03
2016-12-06T07:45:55.393Z,-1.01
2016-12-06T07:47:04.074Z,-1.12
2016-12-06T07:48:12.764Z,-1.14
2016-12-06T07:49:21.458Z,-1.17
2016-12-06T07:50:30.141Z,-1.22
2016-12-06T07:51:38.826Z,-1.25
2016-12-06T07:52:47.512Z,-1.19
2016-12-06T07:53:56.198Z,-1.22
2016-12-06T07:55:04.889Z,-1.22
2016-12-06T07:56:13.888Z,-1.33
2016-12-06T07:57:22.576Z,-1.38
2016-12-06T07:58:31.257Z,-1.38
2016-12-06T07:59:39.945Z,-1.42
2016-12-06T08:00:48.627Z,-1.43
2016-12-06T08:01:57.329Z,-1.4
2016-12-06T08:03:06.011Z,-1.4
2016-12-06T08:04:15.007Z,-1.43
2016-12-06T08:05:23.691Z,-1.33
2016-12-06T08:06:32.380Z,-1.24
2016-12-06T08:07:41.067Z,-1.21
2016-12-06T08:08:49.752Z,-1.18
2016-12-06T08:09:58.550Z,-1.21
2016-12-06T08:11:07.240Z,-1.18
2016-12-06T08:12:15.933Z,-1.15
2016-12-06T08:13:24.615Z,-1.24
2016-12-06T08:14:33.348Z,-1.29
2016-12-06T08:15:42.027Z,-1.17
2016-12-06T08:16:50.712Z,-1.18
2016-12-06T08:17:59.424Z,-1.11
2016-12-06T08:19:08.111Z,-1.06
2016-12-06T08:20:16.799Z,-1.03
2016-12-06T08:21:25.477Z,-0.96
2016-12-06T08:22:34.163Z,-0.96
2016-12-06T08:23:42.882Z,-0.89
2016-12-06T08:24:51.601Z,-0.8
2016-12-06T08:26:00.608Z,-0.89
2016-12-06T08:27:09.609Z,-0.74
2016-12-06T08:28:18.288Z,-0.8
2016-12-06T08:29:26.973Z,-0.8
2016-12-06T08:30:35.657Z,-0.69
2016-12-06T08:31:44.344Z,-0.66
2016-12-06T08:32:53.026Z,-0.6
2016-12-06T08:34:01.708Z,-0.66
2016-12-06T08:35:10.393Z,-0.67
2016-12-06T08:36:19.073Z,-0.56
2016-12-06T08:37:27.756Z,-0.56
2016-12-06T08:38:36.443Z,-0.56
2016-12-06T08:39:45.156Z,-0.57
2016-12-06T08:40:53.850Z,-0.57
2016-12-06T08:42:02.536Z,-0.54
2016-12-06T08:43:11.218Z,-0.66
2016-12-06T08:44:19.899Z,-0.62
2016-12-06T08:45:28.584Z,-0.56
2016-12-06T08:46:37.273Z,-0.53
2016-12-06T08:47:45.959Z,-0.49
2016-12-06T08:48:54.671Z,-0.53
2016-12-06T08:50:03.351Z,-0.42
2016-12-06T08:51:12.067Z,-0.53
2016-12-06T08:52:20.776Z,-0.45
2016-12-06T08:53:29.461Z,-0.46
2016-12-06T08:54:38.143Z,-0.44
2016-12-06T08:55:46.823Z,-0.38
2016-12-06T08:56:55.506Z,-0.38
2016-12-06T08:58:04.191Z,-0.36
2016-12-06T08:59:12.878Z,-0.36
2016-12-06T09:00:21.561Z,-0.31
2016-12-06T09:01:30.241Z,-0.36
2016-12-06T09:02:38.920Z,-0.26
2016-12-06T09:03:47.601Z,-0.28
2016-12-06T09:04:56.283Z,-0.28
2016-12-06T09:06:04.968Z,-0.33
2016-12-06T09:07:13.651Z,-0.3
2016-12-06T09:08:22.340Z,-0.18
2016-12-06T09:09:31.024Z,-0.17
2016-12-06T09:10:39.728Z,-0.13
2016-12-06T09:11:48.410Z,-0.12
2016-12-06T09:12:57.092Z,-0.05
2016-12-06T09:14:05.772Z,-0.13
2016-12-06T09:15:14.489Z,-0.1
2016-12-06T09:16:23.205Z,-0.15
2016-12-06T09:17:31.893Z,-0.2
2016-12-06T09:18:40.578Z,-0.15
2016-12-06T09:19:49.291Z,-0.09
2016-12-06T09:20:57.975Z,-0.1
2016-12-06T09:22:06.660Z,-0.05
2016-12-06T09:23:15.351Z,-0.09
2016-12-06T09:24:24.033Z,-0.1
2016-12-06T09:25:32.715Z,-0.06
2016-12-06T09:26:41.435Z,0.01
2016-12-06T09:27:50.122Z,-0.03
2016-12-06T09:28:58.815Z,-0.03
2016-12-06T09:30:07.497Z,0.01
2016-12-06T09:31:16.181Z,0.13
2016-12-06T09:32:24.862Z,0.01
2016-12-06T09:33:33.552Z,0.05
2016-12-06T09:34:42.235Z,0
2016-12-06T09:35:50.918Z,0.01
2016-12-06T09:36:59.604Z,0.11
2016-12-06T09:38:08.298Z,-0.03
2016-12-06T09:39:16.983Z,0.01
2016-12-06T09:40:25.668Z,0.05
2016-12-06T09:41:34.350Z,0.01
2016-12-06T09:42:43.033Z,0.05
2016-12-06T09:43:51.718Z,0.05
2016-12-06T09:45:00.403Z,0.05
2016-12-06T09:46:09.097Z,0.05
2016-12-06T09:47:17.779Z,0.02
2016-12-06T09:48:26.463Z,0.15
2016-12-06T09:49:35.155Z,0.18
2016-12-06T09:50:43.837Z,0.12
2016-12-06T09:51:52.516Z,0.18
2016-12-06T09:53:01.208Z,0.08
2016-12-06T09:54:09.921Z,0.08
2016-12-06T09:55:18.611Z,0.06
2016-12-06T09:56:27.300Z,0.08
2016-12-06T09:57:36.004Z,0.09
2016-12-06T09:58:44.686Z,0.05
2016-12-06T09:59:53.373Z,0.12
2016-12-06T10:01:02.208Z,0.11
2016-12-06T10:02:11.045Z,0.08
2016-12-06T10:03:19.731Z,-0.03
2016-12-06T10:04:28.439Z,0.02
2016-12-06T10:05:37.127Z,0.09
2016-12-06T10:06:45.839Z,-0.07
2016-12-06T10:07:54.526Z,0.05
2016-12-06T10:09:03.208Z,-0.03
2016-12-06T10:10:11.896Z,-0.05
2016-12-06T10:11:20.585Z,0.05
2016-12-06T10:12:29.264Z,-0.07
2016-12-06T10:13:37.947Z,0.02
2016-12-06T10:14:46.629Z,0.01
2016-12-06T10:15:55.344Z,0.01
2016-12-06T10:17:04.021Z,0.02
2016-12-06T10:18:12.744Z,-0.1
2016-12-06T10:19:21.427Z,-0.12
2016-12-06T10:20:30.113Z,-0.17
2016-12-06T10:21:39.105Z,-0.1
2016-12-06T10:22:47.796Z,-0.12
2016-12-06T10:23:56.477Z,-0.18
2016-12-06T10:25:05.161Z,-0.2
2016-12-06T10:26:13.856Z,-0.2
2016-12-06T10:27:22.537Z,-0.2
2016-12-06T10:28:31.531Z,-0.27
2016-12-06T10:29:40.234Z,-0.36
2016-12-06T10:30:49.246Z,-0.36
2016-12-06T10:31:57.929Z,-0.49
2016-12-06T10:33:06.623Z,-0.46
2016-12-06T10:34:15.266Z,-0.49
2016-12-06T10:35:23.956Z,-0.41
2016-12-06T10:36:32.638Z,-0.39
2016-12-06T10:37:41.631Z,-0.31
2016-12-06T10:38:50.340Z,-0.3
2016-12-06T10:39:59.021Z,-0.2
2016-12-06T10:41:07.704Z,-0.1
2016-12-06T10:42:16.386Z,-0.07
2016-12-06T10:43:25.068Z,-0.09
2016-12-06T10:44:33.785Z,-0.03
2016-12-06T10:45:42.504Z,0.02
2016-12-06T10:46:51.215Z,0.08
2016-12-06T10:47:59.924Z,0.3
2016-12-06T10:49:08.612Z,0.51
2016-12-06T10:50:17.300Z,0.66
2016-12-06T10:51:26.040Z,0.73
2016-12-06T10:52:34.724Z,0.71
2016-12-06T10:53:43.409Z,0.81
2016-12-06T10:54:52.448Z,0.95
2016-12-06T10:56:01.134Z,1.06
2016-12-06T10:57:09.815Z,1.27
2016-12-06T10:58:18.500Z,1.53
2016-12-06T10:59:27.185Z,1.61
2016-12-06T11:00:35.870Z,1.57
2016-12-06T11:01:44.565Z,1.5
2016-12-06T11:02:53.249Z,1.21
2016-12-06T11:04:01.942Z,1.12
2016-12-06T11:05:10.632Z,1.2
2016-12-06T11:06:19.323Z,1.14
2016-12-06T11:07:28.012Z,1.24
2016-12-06T11:08:36.700Z,1.39
2016-12-06T11:09:45.419Z,1.53
2016-12-06T11:10:54.124Z,1.56
2016-12-06T11:12:02.824Z,1.74
2016-12-06T11:13:11.527Z,1.89
2016-12-06T11:14:20.212Z,2.21
2016-12-06T11:15:28.893Z,2.43
2016-12-06T11:16:37.582Z,2.37
2016-12-06T11:17:46.273Z,1.98
2016-12-06T11:18:54.988Z,1.64
2016-12-06T11:20:03.678Z,1.39
2016-12-06T11:21:12.359Z,1.2
2016-12-06T11:22:21.041Z,1.1
2016-12-06T11:23:29.724Z,1.18
2016-12-06T11:24:38.409Z,1.57
2016-12-06T11:25:47.098Z,2.03
2016-12-06T11:26:55.806Z,2.15
2016-12-06T11:28:04.493Z,2.03
2016-12-06T11:29:13.182Z,2.12
2016-12-06T11:30:21.872Z,2.22
2016-12-06T11:31:30.558Z,2.08
2016-12-06T11:32:39.242Z,2.3
2016-12-06T11:33:48.243Z,2.01
2016-12-06T11:34:56.943Z,1.95
2016-12-06T11:36:05.668Z,1.89
2016-12-06T11:37:14.366Z,2.01
2016-12-06T11:38:23.048Z,1.74
2016-12-06T11:39:31.732Z,1.45
2016-12-06T11:40:40.421Z,1.25
2016-12-06T11:41:49.143Z,1.32
2016-12-06T11:42:57.831Z,1.21
2016-12-06T11:44:06.833Z,1.21
2016-12-06T11:45:15.528Z,1.25
2016-12-06T11:46:24.219Z,1.28
2016-12-06T11:47:32.910Z,1.2
2016-12-06T11:48:41.601Z,1.13
2016-12-06T11:49:50.294Z,1.09
2016-12-06T11:50:58.976Z,1.04
2016-12-06T11:52:07.662Z,0.91
2016-12-06T11:53:16.353Z,0.94
2016-12-06T11:54:25.061Z,1.04
2016-12-06T11:55:33.742Z,1.13
2016-12-06T11:56:42.425Z,1
2016-12-06T11:57:51.448Z,0.99
2016-12-06T11:59:00.161Z,1.31
2016-12-06T12:00:08.851Z,2.03
2016-12-06T12:01:17.539Z,2.5
2016-12-06T12:02:26.226Z,2.52
2016-12-06T12:03:34.922Z,2.33
2016-12-06T12:04:43.604Z,1.97
2016-12-06T12:05:52.290Z,2.07
2016-12-06T12:07:00.985Z,2.23
2016-12-06T12:08:09.675Z,2.37
2016-12-06T12:09:18.671Z,2.19
2016-12-06T12:10:27.359Z,1.98
2016-12-06T12:11:36.054Z,1.63
2016-12-06T12:12:44.741Z,1.88
2016-12-06T12:13:53.438Z,2.39
2016-12-06T12:15:02.125Z,2.73
2016-12-06T12:16:10.813Z,2.98
2016-12-06T12:17:19.507Z,3.03
2016-12-06T12:18:28.194Z,3.19
2016-12-06T12:19:36.879Z,3.34
2016-12-06T12:20:45.567Z,3.21
2016-12-06T12:21:54.253Z,3.19
2016-12-06T12:23:02.939Z,3.24
2016-12-06T12:24:11.657Z,3.21
2016-12-06T12:25:20.343Z,3.18
2016-12-06T12:26:29.128Z,3.15
2016-12-06T12:27:37.813Z,3.16
2016-12-06T12:28:46.505Z,3.37
2016-12-06T12:29:55.218Z,3.36
2016-12-06T12:31:03.917Z,3.37
2016-12-06T12:32:12.607Z,3.3
2016-12-06T12:33:21.299Z,3.33
2016-12-06T12:34:29.991Z,3.37
2016-12-06T12:35:38.677Z,3.33
2016-12-06T12:36:47.369Z,3.16
2016-12-06T12:37:56.055Z,3.03
2016-12-06T12:39:04.745Z,2.82
2016-12-06T12:40:13.431Z,2.8
2016-12-06T12:41:22.434Z,2.83
2016-12-06T12:42:31.122Z,2.91
2016-12-06T12:43:39.812Z,2.95
2016-12-06T12:44:48.506Z,2.91
2016-12-06T12:45:57.204Z,2.62
2016-12-06T12:47:05.913Z,2.41
2016-12-06T12:48:14.958Z,2.12
2016-12-06T12:49:23.644Z,1.89
2016-12-06T12:50:32.661Z,1.56
2016-12-06T12:51:41.360Z,1.22
2016-12-06T12:52:50.046Z,1.02
2016-12-06T12:53:58.734Z,0.81
2016-12-06T12:55:07.436Z,0.76
2016-12-06T12:56:16.122Z,0.58
2016-12-06T12:57:25.136Z,0.56
2016-12-06T12:58:33.826Z,0.48
2016-12-06T12:59:42.512Z,0.58
2016-12-06T13:00:51.202Z,0.74
2016-12-06T13:01:59.898Z,0.51
2016-12-06T13:03:08.603Z,0.48
2016-12-06T13:04:17.288Z,0.48
2016-12-06T13:05:25.975Z,0.24
2016-12-06T13:06:34.658Z,0.13
2016-12-06T13:07:43.348Z,0.08
2016-12-06T13:08:52.355Z,0
2016-12-06T13:10:01.045Z,-0.06
2016-12-06T13:11:09.738Z,-0.09
2016-12-06T13:12:18.425Z,-0.06
2016-12-06T13:13:27.112Z,-0.07
2016-12-06T13:14:35.801Z,-0.18
2016-12-06T13:15:44.488Z,-0.28
2016-12-06T13:16:53.177Z,-0.49
2016-12-06T13:18:01.863Z,-0.54
2016-12-06T13:19:10.556Z,-0.59
2016-12-06T13:20:19.254Z,-0.64
2016-12-06T13:21:27.943Z,-0.72
2016-12-06T13:22:36.624Z,-0.64
2016-12-06T13:23:45.330Z,-0.56
2016-12-06T13:24:54.014Z,-0.67
2016-12-06T13:26:02.700Z,-0.75
2016-12-06T13:27:11.381Z,-0.75
2016-12-06T13:28:20.066Z,-0.93
2016-12-06T13:29:28.782Z,-1.04
2016-12-06T13:30:37.474Z,-1.09
2016-12-06T13:31:46.158Z,-1.12
2016-12-06T13:32:54.841Z,-1.3
2016-12-06T13:34:03.526Z,-1.27
2016-12-06T13:35:12.239Z,-1.4
2016-12-06T13:36:20.919Z,-1.42
2016-12-06T13:37:29.601Z,-1.45
2016-12-06T13:38:38.286Z,-1.48
2016-12-06T13:39:46.975Z,-1.32
2016-12-06T13:40:55.656Z,-1.4
2016-12-06T13:42:04.344Z,-1.33
2016-12-06T13:43:13.347Z,-1.43
2016-12-06T13:44:22.026Z,-1.35
2016-12-06T13:45:30.715Z,-1.43
2016-12-06T13:46:39.392Z,-1.48
2016-12-06T13:47:48.078Z,-1.56
2016-12-06T13:48:56.764Z,-1.61
2016-12-06T13:50:05.452Z,-1.6
2016-12-06T13:51:14.462Z,-1.68
2016-12-06T13:52:23.468Z,-1.6
2016-12-06T13:53:32.153Z,-1.45
2016-12-06T13:54:40.837Z,-1.39
2016-12-06T13:55:49.518Z,-1.4
2016-12-06T13:56:58.207Z,-1.19
2016-12-06T13:58:06.901Z,-1.18
2016-12-06T13:59:15.591Z,-1.15
2016-12-06T14:00:24.270Z,-1.25
2016-12-06T14:01:32.951Z,-1.32
2016-12-06T14:02:41.633Z,-1.35
2016-12-06T14:03:50.317Z,-1.36
2016-12-06T14:04:59.007Z,-1.43
2016-12-06T14:06:07.705Z,-1.4
2016-12-06T14:07:16.697Z,-1.38
2016-12-06T14:08:25.379Z,-1.39
2016-12-06T14:09:34.061Z,-1.45
2016-12-06T14:10:42.741Z,-1.5
2016-12-06T14:11:51.427Z,-1.56
2016-12-06T14:13:00.109Z,-1.66
2016-12-06T14:14:08.801Z,-1.64
2016-12-06T14:15:17.495Z,-1.68
2016-12-06T14:16:26.176Z,-1.72
2016-12-06T14:17:34.857Z,-1.82
2016-12-06T14:18:43.544Z,-1.92
2016-12-06T14:19:52.260Z,-2.04
2016-12-06T14:21:00.994Z,-2.15
2016-12-06T14:22:09.674Z,-2.26
2016-12-06T14:23:18.360Z,-2.39
2016-12-06T14:24:27.039Z,-2.51
2016-12-06T14:25:35.720Z,-2.51
2016-12-06T14:26:44.411Z,-2.51
2016-12-06T14:27:53.092Z,-2.45
2016-12-06T14:29:01.773Z,-2.5
2016-12-06T14:30:10.453Z,-2.5
2016-12-06T14:31:19.132Z,-2.55
2016-12-06T14:32:27.820Z,-2.4
2016-12-06T14:33:36.507Z,-2.39
2016-12-06T14:34:45.199Z,-2.32
2016-12-06T14:35:53.883Z,-2.39
2016-12-06T14:37:02.565Z,-2.32
2016-12-06T14:38:11.252Z,-2.32
2016-12-06T14:39:19.935Z,-2.42
2016-12-06T14:40:28.618Z,-2.52
2016-12-06T14:41:37.306Z,-2.66
2016-12-06T14:42:46.303Z,-2.73
2016-12-06T14:43:54.992Z,-2.83
2016-12-06T14:45:03.994Z,-2.89
2016-12-06T14:46:12.683Z,-2.91
2016-12-06T14:47:21.364Z,-2.96
2016-12-06T14:48:30.049Z,-2.98
2016-12-06T14:49:38.739Z,-3.12
2016-12-06T14:50:47.420Z,-3.07
2016-12-06T14:51:56.104Z,-3.09
2016-12-06T14:53:04.787Z,-3.11
2016-12-06T14:54:13.467Z,-3.11
2016-12-06T14:55:22.151Z,-3.09